Geeville, Mississippi
Current Conditions -  °F | °C
As of 6:53 PM on Friday 28 Nov 2014 (Local Time) from KTUP Reporting Station
Clear Clear  
Wind Chill: 38°   Ceiling: Unl
Heat Index: 43°   Visibility: 10mi
Dew Point: 28°   Wind: 9mph
Humidity: 56%   Direction: 190°S
Pressure: 30.21"   Gusts: NA
Location:  34.5357°N, 88.6348°W
Report Text: KTUP 290053Z AUTO 19008KT 10SM CLR 06/M02 A3021 RMK AO2 SLP232 T00611022 $
Loading
Personal Weather Stations






























Interactive Weather Map New forecast layout! Learn more

10-Day Weather Forecast

Advertisements
Track Severe Weather on mobile